createdAt,value
2024-03-08T00:01:29.483Z,-1.27
2024-03-08T00:03:04.376Z,-1.33
2024-03-08T00:04:37.666Z,-1.32
2024-03-08T00:06:12.892Z,-1.39
2024-03-08T00:07:46.232Z,-1.37
2024-03-08T00:09:23.335Z,-1.43
2024-03-08T00:10:56.386Z,-1.45
2024-03-08T00:12:30.866Z,-1.48
2024-03-08T00:14:07.728Z,-1.42
2024-03-08T00:15:42.504Z,-1.43
2024-03-08T00:17:16.976Z,-1.52
2024-03-08T00:18:51.587Z,-1.47
2024-03-08T00:20:24.673Z,-1.46
2024-03-08T00:21:58.737Z,-1.37
2024-03-08T00:23:31.606Z,-1.43
2024-03-08T00:25:06.846Z,-1.39
2024-03-08T00:26:39.945Z,-1.49
2024-03-08T00:28:16.208Z,-1.57
2024-03-08T00:29:49.435Z,-1.59
2024-03-08T00:31:25.261Z,-1.56
2024-03-08T00:32:59.229Z,-1.57
2024-03-08T00:34:32.846Z,-1.68
2024-03-08T00:36:08.557Z,-1.64
2024-03-08T00:37:43.385Z,-1.63
2024-03-08T00:39:17.818Z,-1.62
2024-03-08T00:40:50.717Z,-1.61
2024-03-08T00:42:25.620Z,-1.56
2024-03-08T00:44:00.268Z,-1.55
2024-03-08T00:45:33.508Z,-1.59
2024-03-08T00:47:09.381Z,-1.59
2024-03-08T00:48:44.610Z,-1.74
2024-03-08T00:50:19.584Z,-1.63
2024-03-08T00:51:52.629Z,-1.55
2024-03-08T00:53:26.752Z,-1.46
2024-03-08T00:55:00.798Z,-1.58
2024-03-08T00:56:35.646Z,-1.69
2024-03-08T00:58:10.412Z,-1.55
2024-03-08T00:59:43.516Z,-1.47
2024-03-08T01:01:17.957Z,-1.55
2024-03-08T01:02:53.325Z,-1.52
2024-03-08T01:04:30.076Z,-1.53
2024-03-08T01:06:04.491Z,-1.56
2024-03-08T01:07:38.708Z,-1.55
2024-03-08T01:09:12.024Z,-1.57
2024-03-08T01:10:46.568Z,-1.60
2024-03-08T01:12:19.791Z,-1.69
2024-03-08T01:13:56.069Z,-1.70
2024-03-08T01:15:30.547Z,-1.70
2024-03-08T01:17:03.459Z,-1.70
2024-03-08T01:18:38.848Z,-1.68
2024-03-08T01:20:13.654Z,-1.76
2024-03-08T01:21:48.143Z,-1.81
2024-03-08T01:23:21.096Z,-1.78
2024-03-08T01:24:55.285Z,-1.83
2024-03-08T01:26:28.253Z,-1.92
2024-03-08T01:28:02.626Z,-1.81
2024-03-08T01:29:35.562Z,-1.86
2024-03-08T01:31:09.755Z,-1.88
2024-03-08T01:32:43.732Z,-1.94
2024-03-08T01:34:19.612Z,-1.85
2024-03-08T01:35:53.753Z,-1.96
2024-03-08T01:37:26.652Z,-1.93
2024-03-08T01:39:00.518Z,-2.03
2024-03-08T01:40:34.867Z,-2.02
2024-03-08T01:42:08.133Z,-2.02
2024-03-08T01:43:42.070Z,-2.02
2024-03-08T01:45:15.013Z,-2.03
2024-03-08T01:46:50.245Z,-1.97
2024-03-08T01:48:25.088Z,-1.95
2024-03-08T01:50:01.012Z,-1.91
2024-03-08T01:51:34.190Z,-1.97
2024-03-08T01:53:08.935Z,-2.01
2024-03-08T01:54:43.151Z,-1.98
2024-03-08T01:56:16.224Z,-2.09
2024-03-08T01:57:50.547Z,-2.00
2024-03-08T01:59:23.897Z,-2.00
2024-03-08T02:00:59.321Z,-2.15
2024-03-08T02:02:34.889Z,-2.08
2024-03-08T02:04:09.293Z,-1.97
2024-03-08T02:05:45.114Z,-1.94
2024-03-08T02:07:19.039Z,-1.98
2024-03-08T02:08:52.591Z,-2.09
2024-03-08T02:10:26.492Z,-2.08
2024-03-08T02:11:59.835Z,-2.07
2024-03-08T02:13:34.017Z,-2.09
2024-03-08T02:15:08.019Z,-2.19
2024-03-08T02:16:41.996Z,-2.19
2024-03-08T02:18:15.859Z,-2.21
2024-03-08T02:19:49.830Z,-2.23
2024-03-08T02:21:24.107Z,-2.30
2024-03-08T02:22:57.951Z,-2.33
2024-03-08T02:24:31.982Z,-2.36
2024-03-08T02:26:06.715Z,-2.37
2024-03-08T02:27:42.323Z,-2.38
2024-03-08T02:29:17.134Z,-2.46
2024-03-08T02:30:50.985Z,-2.45
2024-03-08T02:32:25.330Z,-2.45
2024-03-08T02:34:00.744Z,-2.41
2024-03-08T02:35:34.040Z,-2.41
2024-03-08T02:37:10.135Z,-2.37
2024-03-08T02:38:43.034Z,-2.48
2024-03-08T02:40:17.733Z,-2.47
2024-03-08T02:41:50.718Z,-2.45
2024-03-08T02:43:26.249Z,-2.41
2024-03-08T02:44:59.626Z,-2.39
2024-03-08T02:46:33.638Z,-2.33
2024-03-08T02:48:07.785Z,-2.31
2024-03-08T02:49:42.202Z,-2.40
2024-03-08T02:51:17.387Z,-2.42
2024-03-08T02:52:51.844Z,-2.52
2024-03-08T02:54:25.985Z,-2.48
2024-03-08T02:55:59.612Z,-2.46
2024-03-08T02:57:33.600Z,-2.51
2024-03-08T02:59:06.696Z,-2.60
2024-03-08T03:00:42.101Z,-2.59
2024-03-08T03:02:15.583Z,-2.62
2024-03-08T03:03:49.501Z,-2.51
2024-03-08T03:05:22.558Z,-2.50
2024-03-08T03:06:57.097Z,-2.40
2024-03-08T03:08:32.128Z,-2.38
2024-03-08T03:10:08.213Z,-2.38
2024-03-08T03:11:42.098Z,-2.46
2024-03-08T03:13:15.463Z,-2.53
2024-03-08T03:14:50.118Z,-2.51
2024-03-08T03:16:24.027Z,-2.57
2024-03-08T03:17:57.982Z,-2.63
2024-03-08T03:19:31.320Z,-2.48
2024-03-08T03:21:09.226Z,-2.63
2024-03-08T03:22:42.613Z,-2.54
2024-03-08T03:24:19.124Z,-2.57
2024-03-08T03:25:53.349Z,-2.50
2024-03-08T03:27:27.600Z,-2.69
2024-03-08T03:29:01.836Z,-2.60
2024-03-08T03:30:35.907Z,-2.65
2024-03-08T03:32:08.954Z,-2.67
2024-03-08T03:33:43.401Z,-2.62
2024-03-08T03:35:17.028Z,-2.63
2024-03-08T03:36:50.955Z,-2.62
2024-03-08T03:38:24.950Z,-2.64
2024-03-08T03:40:00.940Z,-2.41
2024-03-08T03:41:33.929Z,-2.45
2024-03-08T03:43:08.301Z,-2.48
2024-03-08T03:44:41.339Z,-2.49
2024-03-08T03:46:15.687Z,-2.43
2024-03-08T03:47:48.665Z,-2.52
2024-03-08T03:49:22.778Z,-2.60
2024-03-08T03:50:56.920Z,-2.48
2024-03-08T03:52:30.138Z,-2.55
2024-03-08T03:54:05.031Z,-2.40
2024-03-08T03:55:41.664Z,-2.50
2024-03-08T03:57:15.077Z,-2.48
2024-03-08T03:58:50.475Z,-2.50
2024-03-08T04:00:23.536Z,-2.55
2024-03-08T04:01:57.674Z,-2.52
2024-03-08T04:03:30.600Z,-2.51
2024-03-08T04:05:05.449Z,-2.46
2024-03-08T04:06:39.389Z,-2.50
2024-03-08T04:08:12.736Z,-2.47
2024-03-08T04:09:46.628Z,-2.41
2024-03-08T04:11:22.516Z,-2.49
2024-03-08T04:12:57.955Z,-2.51
2024-03-08T04:14:30.957Z,-2.57
2024-03-08T04:16:09.020Z,-1.96
2024-03-08T04:17:42.508Z,-2.08
2024-03-08T04:19:16.579Z,-2.15
2024-03-08T04:20:49.667Z,-2.08
2024-03-08T04:22:23.710Z,-2.21
2024-03-08T04:23:58.119Z,-2.13
2024-03-08T04:25:32.052Z,-2.13
2024-03-08T04:27:06.606Z,-2.22
2024-03-08T04:28:40.897Z,-2.17
2024-03-08T04:30:14.706Z,-2.17
2024-03-08T04:31:48.690Z,-2.17
2024-03-08T04:33:22.821Z,-2.17
2024-03-08T04:34:56.947Z,-2.15
2024-03-08T04:36:30.232Z,-2.21
2024-03-08T04:38:06.478Z,-2.32
2024-03-08T04:39:39.744Z,-2.27
2024-03-08T04:41:13.890Z,-2.22
2024-03-08T04:42:50.240Z,-2.21
2024-03-08T04:44:25.512Z,-2.18
2024-03-08T04:45:59.476Z,-2.24
2024-03-08T04:47:33.552Z,-2.08
2024-03-08T04:49:08.632Z,-1.97
2024-03-08T04:50:42.498Z,-1.96
2024-03-08T04:52:15.793Z,-1.93
2024-03-08T04:53:49.832Z,-1.78
2024-03-08T04:55:23.393Z,-1.62
2024-03-08T04:56:57.393Z,-1.55
2024-03-08T04:58:31.698Z,-1.28
2024-03-08T05:00:12.092Z,-0.90
2024-03-08T05:01:45.497Z,-0.84
2024-03-08T05:03:19.463Z,-0.71
2024-03-08T05:04:52.576Z,-0.72
2024-03-08T05:06:26.417Z,-0.47
2024-03-08T05:07:59.807Z,-0.56
2024-03-08T05:09:34.974Z,-0.46
2024-03-08T05:11:08.595Z,-0.45
2024-03-08T05:12:42.594Z,-0.48
2024-03-08T05:14:18.466Z,-0.39
2024-03-08T05:15:52.496Z,-0.29
2024-03-08T05:17:25.339Z,-0.31
2024-03-08T05:19:00.527Z,-0.32
2024-03-08T05:20:34.035Z,-0.40
2024-03-08T05:22:08.000Z,-0.32
2024-03-08T05:23:41.068Z,-0.32
2024-03-08T05:25:15.334Z,-0.23
2024-03-08T05:26:49.313Z,0.07
2024-03-08T05:28:23.354Z,0.13
2024-03-08T05:29:57.930Z,0.25
2024-03-08T05:31:38.484Z,0.32
2024-03-08T05:33:11.938Z,0.36
2024-03-08T05:34:45.845Z,0.39
2024-03-08T05:36:18.859Z,0.60
2024-03-08T05:37:52.886Z,0.67
2024-03-08T05:39:26.487Z,0.75
2024-03-08T05:41:00.585Z,0.93
2024-03-08T05:42:33.898Z,1.03
2024-03-08T05:44:08.169Z,1.01
2024-03-08T05:45:42.837Z,1.01
2024-03-08T05:47:17.117Z,1.10
2024-03-08T05:48:50.389Z,1.17
2024-03-08T05:50:24.552Z,1.27
2024-03-08T05:51:57.989Z,1.19
2024-03-08T05:53:32.782Z,1.27
2024-03-08T05:55:08.535Z,1.33
2024-03-08T05:56:44.701Z,1.37
2024-03-08T05:58:18.568Z,1.51
2024-03-08T05:59:52.957Z,1.56
2024-03-08T06:01:28.568Z,1.57
2024-03-08T06:03:01.649Z,1.64
2024-03-08T06:04:36.024Z,1.63
2024-03-08T06:06:09.195Z,1.66
2024-03-08T06:07:43.519Z,1.64
2024-03-08T06:09:24.151Z,1.78
2024-03-08T06:11:00.838Z,1.81
2024-03-08T06:12:38.203Z,1.76
2024-03-08T06:14:12.325Z,1.72
2024-03-08T06:15:46.594Z,1.86
2024-03-08T06:17:21.385Z,1.89
2024-03-08T06:18:56.492Z,1.99
2024-03-08T06:20:29.726Z,1.95
2024-03-08T06:22:06.751Z,1.98
2024-03-08T06:23:41.586Z,2.05
2024-03-08T06:25:16.038Z,2.12
2024-03-08T06:26:50.067Z,2.08
2024-03-08T06:28:24.113Z,2.12
2024-03-08T06:29:57.535Z,2.18
2024-03-08T06:31:31.611Z,2.20
2024-03-08T06:33:08.318Z,2.19
2024-03-08T06:34:41.306Z,2.27
2024-03-08T06:36:16.363Z,2.18
2024-03-08T06:37:49.655Z,2.12
2024-03-08T06:39:26.292Z,2.03
2024-03-08T06:40:59.718Z,2.25
2024-03-08T06:42:36.588Z,2.31
2024-03-08T06:44:10.306Z,2.31
2024-03-08T06:45:49.908Z,2.42
2024-03-08T06:47:24.022Z,2.48
2024-03-08T06:49:00.161Z,2.48
2024-03-08T06:50:33.314Z,2.59
2024-03-08T06:52:10.234Z,2.80
2024-03-08T06:53:43.524Z,2.86
2024-03-08T06:55:18.822Z,3.11
2024-03-08T06:56:52.070Z,3.11
2024-03-08T06:58:26.221Z,3.23
2024-03-08T06:59:59.302Z,3.58
2024-03-08T07:01:36.347Z,4.04
2024-03-08T07:03:13.662Z,4.60
2024-03-08T07:04:48.276Z,5.08
2024-03-08T07:06:22.431Z,5.73
2024-03-08T07:07:56.369Z,6.28
2024-03-08T07:09:30.429Z,6.54
2024-03-08T07:11:05.198Z,7.69
2024-03-08T07:12:38.326Z,8.41
2024-03-08T07:14:12.743Z,8.17
2024-03-08T07:15:46.695Z,8.66
2024-03-08T07:17:20.702Z,8.34
2024-03-08T07:18:53.965Z,8.73
2024-03-08T07:20:30.457Z,9.84
2024-03-08T07:22:04.848Z,9.49
2024-03-08T07:23:55.820Z,9.87
2024-03-08T07:25:31.251Z,10.86
2024-03-08T07:27:06.550Z,9.91
2024-03-08T07:28:40.917Z,10.43
2024-03-08T07:30:14.438Z,11.55
2024-03-08T07:31:57.875Z,11.45
2024-03-08T07:33:32.115Z,9.93
2024-03-08T07:35:07.064Z,11.24
2024-03-08T07:36:41.704Z,10.64
2024-03-08T07:38:16.173Z,10.87
2024-03-08T07:39:49.537Z,10.68
2024-03-08T07:41:24.412Z,10.61
2024-03-08T07:42:57.880Z,10.38
2024-03-08T07:44:33.568Z,11.79
2024-03-08T07:46:07.030Z,12.18
2024-03-08T07:47:41.323Z,11.43
2024-03-08T07:49:15.212Z,10.63
2024-03-08T07:50:51.504Z,11.08
2024-03-08T07:52:27.167Z,12.19
2024-03-08T07:54:01.391Z,12.78
2024-03-08T07:55:34.680Z,12.36
2024-03-08T07:57:10.235Z,12.88
2024-03-08T07:58:44.059Z,12.84
2024-03-08T08:00:19.858Z,11.11
2024-03-08T08:01:55.436Z,11.70
2024-03-08T08:03:29.904Z,10.48
2024-03-08T08:05:03.086Z,10.57
2024-03-08T08:06:39.272Z,10.19
2024-03-08T08:08:13.673Z,10.91
2024-03-08T08:09:48.197Z,11.36
2024-03-08T08:11:21.511Z,10.39
2024-03-08T08:12:55.480Z,11.02
2024-03-08T08:14:28.428Z,11.13
2024-03-08T08:16:02.657Z,10.62
2024-03-08T08:17:36.017Z,10.72
2024-03-08T08:19:15.072Z,11.14
2024-03-08T08:20:48.503Z,11.80
2024-03-08T08:22:23.183Z,12.86
2024-03-08T08:23:57.699Z,12.38
2024-03-08T08:25:32.481Z,12.82
2024-03-08T08:27:05.673Z,13.57
2024-03-08T08:28:42.589Z,13.90
2024-03-08T08:30:16.132Z,14.36
2024-03-08T08:31:51.100Z,12.10
2024-03-08T08:33:26.822Z,12.19
2024-03-08T08:35:01.396Z,13.42
2024-03-08T08:36:35.632Z,12.44
2024-03-08T08:38:08.704Z,12.27
2024-03-08T08:39:44.224Z,12.04
2024-03-08T08:41:19.412Z,11.58
2024-03-08T08:42:53.940Z,11.83
2024-03-08T08:44:27.301Z,13.25
2024-03-08T08:46:02.335Z,12.84
2024-03-08T08:47:36.308Z,13.15
2024-03-08T08:49:11.812Z,12.09
2024-03-08T08:50:46.192Z,12.46
2024-03-08T08:52:20.891Z,10.62
2024-03-08T08:53:54.775Z,10.59
2024-03-08T08:55:32.748Z,10.56
2024-03-08T08:57:08.913Z,11.25
2024-03-08T08:58:43.630Z,10.77
2024-03-08T09:00:17.967Z,10.53
2024-03-08T09:01:54.978Z,8.92
2024-03-08T09:03:30.872Z,9.23
2024-03-08T09:05:04.509Z,10.89
2024-03-08T09:06:39.320Z,10.25
2024-03-08T09:08:12.401Z,10.50
2024-03-08T09:09:46.695Z,11.70
2024-03-08T09:11:21.451Z,12.85
2024-03-08T09:12:56.405Z,12.61
2024-03-08T09:14:29.363Z,12.92
2024-03-08T09:16:06.242Z,13.77
2024-03-08T09:17:40.975Z,14.34
2024-03-08T09:19:15.740Z,12.66
2024-03-08T09:20:49.979Z,12.94
2024-03-08T09:22:23.618Z,13.33
2024-03-08T09:23:57.601Z,11.70
2024-03-08T09:25:32.512Z,10.78
2024-03-08T09:27:10.850Z,12.06
2024-03-08T09:28:44.684Z,12.68
2024-03-08T09:30:17.725Z,13.06
2024-03-08T09:31:52.889Z,13.15
2024-03-08T09:33:26.039Z,12.55
2024-03-08T09:35:01.986Z,10.79
2024-03-08T09:36:35.084Z,10.30
2024-03-08T09:38:14.597Z,11.54
2024-03-08T09:39:47.828Z,11.63
2024-03-08T09:41:21.885Z,11.07
2024-03-08T09:42:56.779Z,11.87
2024-03-08T09:44:31.416Z,12.08
2024-03-08T09:46:05.605Z,12.78
2024-03-08T09:47:42.808Z,12.46
2024-03-08T09:49:15.814Z,11.92
2024-03-08T09:50:51.108Z,11.99
2024-03-08T09:52:24.218Z,11.57
2024-03-08T09:54:02.835Z,12.37
2024-03-08T09:55:38.598Z,11.40
2024-03-08T09:57:13.565Z,10.30
2024-03-08T09:59:09.183Z,9.76
2024-03-08T10:00:43.562Z,9.47
2024-03-08T10:02:17.983Z,8.56
2024-03-08T10:03:56.160Z,9.49
2024-03-08T10:05:29.511Z,9.34
2024-03-08T10:07:04.179Z,8.99
2024-03-08T10:08:39.245Z,9.20
2024-03-08T10:10:13.448Z,8.44
2024-03-08T10:11:47.976Z,9.06
2024-03-08T10:13:21.231Z,8.34
2024-03-08T10:15:01.446Z,8.40
2024-03-08T10:16:35.272Z,8.35
2024-03-08T10:18:09.970Z,8.43
2024-03-08T10:19:52.021Z,8.98
2024-03-08T10:21:26.435Z,9.01
2024-03-08T10:23:07.496Z,8.63
2024-03-08T10:24:48.045Z,8.99
2024-03-08T10:26:22.917Z,8.91
2024-03-08T10:27:58.188Z,8.90
2024-03-08T10:29:32.376Z,9.43
2024-03-08T10:31:08.151Z,8.92
2024-03-08T10:32:42.436Z,9.39
2024-03-08T10:34:17.677Z,9.31
2024-03-08T10:35:51.343Z,9.32
2024-03-08T10:37:26.084Z,9.24
2024-03-08T10:39:02.652Z,9.07
2024-03-08T10:40:41.310Z,8.89
2024-03-08T10:42:19.538Z,9.40
2024-03-08T10:44:14.091Z,9.56
2024-03-08T10:45:50.228Z,9.71
2024-03-08T10:47:31.849Z,9.71
2024-03-08T10:49:09.300Z,9.58
2024-03-08T10:50:46.449Z,9.98
2024-03-08T10:52:20.725Z,10.09
2024-03-08T10:53:56.622Z,10.50
2024-03-08T10:55:29.881Z,9.30
2024-03-08T10:57:06.634Z,9.32
2024-03-08T10:58:41.364Z,9.28
2024-03-08T11:00:17.604Z,9.40
2024-03-08T11:01:52.200Z,9.47
2024-03-08T11:03:54.989Z,9.54
2024-03-08T11:05:40.879Z,9.56
2024-03-08T11:07:18.981Z,9.53
2024-03-08T11:08:52.109Z,9.29
2024-03-08T11:10:28.368Z,9.38
2024-03-08T11:12:26.606Z,9.61
2024-03-08T11:14:00.505Z,9.79
2024-03-08T11:15:35.075Z,9.57
2024-03-08T11:17:08.292Z,9.30
2024-03-08T11:18:44.295Z,9.91
2024-03-08T11:20:22.063Z,10.03
2024-03-08T11:22:04.315Z,9.74
2024-03-08T11:23:37.762Z,9.60
2024-03-08T11:25:12.133Z,9.44
2024-03-08T11:26:47.907Z,9.58
2024-03-08T11:28:23.681Z,9.58
2024-03-08T11:30:17.100Z,9.21
2024-03-08T11:31:52.991Z,9.21
2024-03-08T11:33:30.040Z,9.33
2024-03-08T11:35:06.827Z,9.38
2024-03-08T11:36:44.787Z,9.28
2024-03-08T11:38:20.396Z,9.18
2024-03-08T11:40:00.569Z,9.27
2024-03-08T11:41:35.288Z,9.44
2024-03-08T11:43:08.769Z,9.44
2024-03-08T11:44:45.625Z,9.82
2024-03-08T11:46:19.780Z,9.33
2024-03-08T11:47:58.743Z,9.39
2024-03-08T11:49:34.498Z,9.12
2024-03-08T11:51:09.322Z,9.04
2024-03-08T11:52:46.484Z,8.94
2024-03-08T11:54:19.758Z,8.82
2024-03-08T11:55:53.946Z,8.84
2024-03-08T11:57:27.631Z,9.19
2024-03-08T11:59:03.395Z,9.12
2024-03-08T12:00:37.029Z,9.16
2024-03-08T12:02:12.213Z,9.13
2024-03-08T12:03:45.639Z,9.03
2024-03-08T12:05:22.580Z,9.02
2024-03-08T12:06:55.523Z,9.02
2024-03-08T12:08:32.277Z,9.05
2024-03-08T12:10:24.140Z,9.07
2024-03-08T12:11:58.395Z,9.02
2024-03-08T12:13:35.127Z,8.99
2024-03-08T12:15:12.530Z,9.03
2024-03-08T12:16:46.186Z,9.36
2024-03-08T12:18:20.123Z,9.68
2024-03-08T12:19:55.915Z,9.67
2024-03-08T12:21:30.676Z,9.24
2024-03-08T12:23:04.472Z,9.14
2024-03-08T12:24:42.411Z,9.14
2024-03-08T12:26:17.141Z,9.13
2024-03-08T12:27:53.481Z,9.23
2024-03-08T12:29:28.816Z,9.46
2024-03-08T12:31:03.460Z,9.32
2024-03-08T12:32:37.060Z,9.03
2024-03-08T12:34:11.373Z,9.12
2024-03-08T12:35:55.940Z,9.14
2024-03-08T12:37:30.747Z,9.26
2024-03-08T12:39:05.038Z,9.43
2024-03-08T12:40:43.299Z,9.37
2024-03-08T12:42:16.882Z,9.18
2024-03-08T12:43:51.213Z,9.16
2024-03-08T12:45:25.255Z,8.99
2024-03-08T12:47:00.432Z,9.21
2024-03-08T12:48:36.736Z,9.49
2024-03-08T12:50:12.000Z,9.70
2024-03-08T12:51:45.225Z,9.74
2024-03-08T12:53:19.235Z,9.97
2024-03-08T12:54:53.265Z,10.14
2024-03-08T12:56:34.532Z,10.07
2024-03-08T12:58:08.705Z,9.91
2024-03-08T12:59:43.922Z,9.86
2024-03-08T13:01:18.826Z,9.71
2024-03-08T13:02:53.285Z,9.82
2024-03-08T13:04:27.009Z,9.91
2024-03-08T13:06:01.246Z,9.77
2024-03-08T13:07:35.021Z,9.77
2024-03-08T13:09:09.036Z,9.67
2024-03-08T13:10:44.675Z,9.49
2024-03-08T13:12:21.222Z,9.33
2024-03-08T13:13:55.639Z,9.27
2024-03-08T13:15:30.802Z,9.48
2024-03-08T13:17:05.342Z,9.40
2024-03-08T13:18:38.662Z,9.53
2024-03-08T13:20:24.845Z,9.36
2024-03-08T13:22:05.772Z,9.41
2024-03-08T13:23:41.660Z,9.58
2024-03-08T13:25:15.199Z,9.24
2024-03-08T13:26:51.596Z,9.21
2024-03-08T13:28:31.107Z,9.26
2024-03-08T13:30:05.837Z,9.35
2024-03-08T13:31:40.920Z,9.41
2024-03-08T13:33:15.321Z,9.29
2024-03-08T13:34:52.060Z,9.40
2024-03-08T13:36:30.436Z,9.50
2024-03-08T13:38:04.576Z,9.57
2024-03-08T13:39:44.889Z,9.61
2024-03-08T13:41:21.568Z,9.67
2024-03-08T13:42:55.610Z,9.59
2024-03-08T13:44:30.281Z,9.71
2024-03-08T13:46:05.941Z,9.64
2024-03-08T13:47:40.532Z,9.74
2024-03-08T13:49:14.784Z,9.68
2024-03-08T13:50:47.812Z,9.67
2024-03-08T13:52:22.018Z,9.72
2024-03-08T13:53:55.402Z,9.74
2024-03-08T13:55:29.338Z,9.52
2024-03-08T13:57:04.800Z,9.55
2024-03-08T13:58:39.244Z,9.81
2024-03-08T14:00:15.481Z,9.81
2024-03-08T14:01:50.134Z,9.89
2024-03-08T14:03:24.839Z,9.74
2024-03-08T14:05:03.297Z,9.68
2024-03-08T14:08:13.151Z,9.65
2024-03-08T14:09:45.930Z,9.71
2024-03-08T14:11:20.897Z,9.82
2024-03-08T14:12:53.951Z,9.93
2024-03-08T14:14:27.665Z,9.72
2024-03-08T14:16:01.982Z,9.77
2024-03-08T14:17:37.199Z,9.81
2024-03-08T14:19:11.059Z,9.83
2024-03-08T14:20:45.426Z,9.75
2024-03-08T14:22:18.733Z,9.75
2024-03-08T14:23:53.683Z,9.71
2024-03-08T14:25:27.353Z,9.64
2024-03-08T14:27:01.553Z,9.62
2024-03-08T14:28:34.685Z,9.43
2024-03-08T14:30:11.942Z,9.49
2024-03-08T14:31:47.199Z,9.47
2024-03-08T14:33:20.296Z,9.59
2024-03-08T14:34:56.259Z,9.58
2024-03-08T14:36:29.717Z,9.56
2024-03-08T14:38:03.941Z,9.44
2024-03-08T14:39:36.955Z,9.64
2024-03-08T14:41:11.017Z,9.74
2024-03-08T14:42:44.114Z,9.64
2024-03-08T14:44:19.848Z,9.52
2024-03-08T14:45:53.881Z,9.50
2024-03-08T14:47:28.210Z,9.56
2024-03-08T14:49:02.522Z,9.46
2024-03-08T14:50:38.027Z,9.50
2024-03-08T14:52:28.303Z,9.41
2024-03-08T14:54:03.524Z,9.44
2024-03-08T14:55:36.778Z,9.33
2024-03-08T14:57:10.648Z,9.38
2024-03-08T14:58:44.971Z,9.53
2024-03-08T15:00:28.415Z,9.51
2024-03-08T15:02:02.882Z,9.55
2024-03-08T15:03:39.600Z,9.54
2024-03-08T15:05:12.829Z,9.48
2024-03-08T15:06:50.759Z,9.53
2024-03-08T15:08:26.707Z,9.34
2024-03-08T15:10:00.777Z,9.45
2024-03-08T15:11:35.766Z,9.52
2024-03-08T15:13:16.500Z,9.58
2024-03-08T15:14:52.348Z,9.59
2024-03-08T15:16:26.318Z,9.57
2024-03-08T15:18:00.419Z,9.52
2024-03-08T15:19:36.153Z,9.62
2024-03-08T15:21:10.235Z,9.44
2024-03-08T15:22:44.577Z,9.55
2024-03-08T15:24:22.200Z,9.60
2024-03-08T15:25:56.056Z,9.52
2024-03-08T15:27:30.372Z,9.43
2024-03-08T15:29:03.404Z,9.32
2024-03-08T15:30:37.413Z,9.42
2024-03-08T15:32:15.895Z,9.43
2024-03-08T15:33:52.969Z,9.43
2024-03-08T15:35:27.596Z,9.49
2024-03-08T15:37:04.317Z,9.48
2024-03-08T15:38:38.267Z,9.36
2024-03-08T15:40:21.975Z,9.21
2024-03-08T15:41:56.375Z,9.14
2024-03-08T15:43:30.618Z,9.19
2024-03-08T15:45:05.264Z,9.20
2024-03-08T15:46:40.838Z,9.12
2024-03-08T15:48:13.973Z,9.15
2024-03-08T15:49:48.129Z,9.11
2024-03-08T15:51:24.084Z,9.16
2024-03-08T15:52:57.123Z,9.04
2024-03-08T15:54:31.419Z,9.03
2024-03-08T15:56:07.049Z,9.05
2024-03-08T15:57:41.778Z,8.92
2024-03-08T15:59:15.424Z,8.98
2024-03-08T16:00:49.926Z,8.95
2024-03-08T16:02:24.739Z,8.98
2024-03-08T16:03:59.491Z,8.88
2024-03-08T16:05:32.496Z,8.87
2024-03-08T16:07:07.952Z,8.82
2024-03-08T16:08:41.120Z,8.77
2024-03-08T16:10:15.720Z,8.72
2024-03-08T16:11:49.744Z,8.66
2024-03-08T16:13:24.836Z,8.65
2024-03-08T16:14:58.255Z,8.60
2024-03-08T16:16:33.684Z,8.54
2024-03-08T16:18:08.036Z,8.49
2024-03-08T16:19:42.735Z,8.53
2024-03-08T16:21:16.556Z,8.52
2024-03-08T16:22:54.036Z,8.40
2024-03-08T16:24:28.240Z,8.45
2024-03-08T16:26:01.404Z,8.41
2024-03-08T16:27:35.526Z,8.37
2024-03-08T16:29:09.077Z,8.31
2024-03-08T16:30:48.981Z,8.25
2024-03-08T16:32:22.089Z,8.23
2024-03-08T16:33:56.106Z,8.21
2024-03-08T16:35:29.542Z,8.18
2024-03-08T16:37:04.582Z,8.09
2024-03-08T16:38:40.067Z,8.09
2024-03-08T16:40:16.643Z,8.07
2024-03-08T16:41:52.178Z,8.01
2024-03-08T16:43:25.254Z,7.92
2024-03-08T16:44:59.829Z,7.87
2024-03-08T16:46:35.929Z,7.81
2024-03-08T16:48:12.373Z,7.71
2024-03-08T16:49:46.626Z,7.66
2024-03-08T16:51:20.782Z,7.62
2024-03-08T16:52:56.815Z,7.47
2024-03-08T16:54:43.478Z,7.57
2024-03-08T16:56:25.830Z,7.57
2024-03-08T16:58:00.008Z,7.43
2024-03-08T16:59:33.840Z,7.36
2024-03-08T17:01:08.366Z,7.30
2024-03-08T17:02:41.623Z,7.28
2024-03-08T17:04:19.105Z,7.29
2024-03-08T17:05:55.623Z,7.27
2024-03-08T17:07:33.413Z,7.21
2024-03-08T17:09:12.996Z,7.12
2024-03-08T17:10:47.716Z,7.16
2024-03-08T17:12:21.789Z,7.02
2024-03-08T17:13:55.352Z,6.94
2024-03-08T17:15:30.237Z,6.88
2024-03-08T17:17:06.150Z,6.78
2024-03-08T17:18:38.990Z,6.78
2024-03-08T17:20:16.671Z,6.74
2024-03-08T17:21:50.556Z,6.64
2024-03-08T17:23:24.641Z,6.59
2024-03-08T17:24:57.721Z,6.49
2024-03-08T17:26:33.700Z,6.45
2024-03-08T17:28:09.922Z,6.48
2024-03-08T17:29:45.637Z,6.55
2024-03-08T17:31:22.519Z,6.40
2024-03-08T17:33:00.847Z,6.42
2024-03-08T17:34:36.718Z,6.34
2024-03-08T17:36:12.372Z,6.38
2024-03-08T17:37:48.218Z,6.25
2024-03-08T17:39:23.252Z,6.18
2024-03-08T17:40:56.402Z,6.22
2024-03-08T17:42:32.888Z,6.22
2024-03-08T17:44:05.954Z,6.06
2024-03-08T17:45:42.067Z,6.04
2024-03-08T17:47:16.656Z,6.04
2024-03-08T17:48:50.652Z,6.10
2024-03-08T17:50:25.317Z,5.99
2024-03-08T17:52:03.925Z,6.01
2024-03-08T17:53:37.038Z,5.98
2024-03-08T17:55:14.922Z,5.94
2024-03-08T17:56:47.902Z,5.80
2024-03-08T17:58:23.993Z,5.72
2024-03-08T17:59:57.048Z,5.78
2024-03-08T18:01:33.651Z,5.74
2024-03-08T18:03:09.946Z,5.77
2024-03-08T18:04:46.742Z,5.86
2024-03-08T18:06:19.923Z,5.71
2024-03-08T18:07:54.564Z,5.69
2024-03-08T18:09:31.454Z,5.49
2024-03-08T18:11:05.938Z,5.64
2024-03-08T18:12:39.139Z,5.58
2024-03-08T18:14:15.998Z,5.64
2024-03-08T18:15:49.387Z,5.57
2024-03-08T18:17:24.295Z,5.58
2024-03-08T18:18:57.338Z,5.58
2024-03-08T18:20:33.794Z,5.63
2024-03-08T18:22:09.199Z,5.59
2024-03-08T18:23:45.021Z,5.54
2024-03-08T18:25:21.152Z,5.51
2024-03-08T18:26:55.369Z,5.43
2024-03-08T18:28:29.502Z,5.49
2024-03-08T18:30:06.858Z,5.41
2024-03-08T18:31:39.990Z,5.33
2024-03-08T18:33:15.854Z,5.35
2024-03-08T18:34:51.120Z,5.34
2024-03-08T18:36:25.690Z,5.30
2024-03-08T18:37:59.105Z,5.38
2024-03-08T18:39:33.397Z,5.30
2024-03-08T18:41:06.571Z,5.31
2024-03-08T18:42:41.881Z,5.19
2024-03-08T18:44:15.318Z,5.25
2024-03-08T18:45:51.366Z,5.09
2024-03-08T18:47:24.346Z,5.10
2024-03-08T18:48:59.206Z,5.07
2024-03-08T18:50:33.786Z,5.07
2024-03-08T18:52:07.907Z,4.95
2024-03-08T18:53:42.925Z,4.74
2024-03-08T18:55:18.244Z,4.82
2024-03-08T18:56:52.861Z,4.85
2024-03-08T18:58:39.238Z,4.91
2024-03-08T19:00:22.713Z,4.82
2024-03-08T19:02:00.894Z,4.81
2024-03-08T19:03:35.816Z,4.79
2024-03-08T19:05:16.642Z,4.94
2024-03-08T19:06:52.649Z,4.83
2024-03-08T19:08:27.565Z,4.84
2024-03-08T19:10:00.931Z,4.82
2024-03-08T19:11:35.233Z,4.69
2024-03-08T19:13:10.455Z,4.66
2024-03-08T19:14:44.655Z,4.77
2024-03-08T19:16:19.023Z,4.74
2024-03-08T19:17:56.431Z,4.62
2024-03-08T19:19:29.964Z,4.75
2024-03-08T19:21:04.057Z,4.58
2024-03-08T19:22:38.905Z,4.69
2024-03-08T19:24:13.217Z,4.66
2024-03-08T19:25:46.847Z,4.64
2024-03-08T19:27:20.962Z,4.67
2024-03-08T19:28:55.251Z,4.65
2024-03-08T19:30:30.047Z,4.60
2024-03-08T19:32:04.804Z,4.63
2024-03-08T19:33:41.637Z,4.67
2024-03-08T19:35:19.319Z,4.55
2024-03-08T19:36:54.023Z,4.46
2024-03-08T19:38:32.492Z,4.50
2024-03-08T19:40:14.636Z,4.45
2024-03-08T19:41:48.618Z,4.51
2024-03-08T19:43:22.925Z,4.47
2024-03-08T19:44:56.702Z,4.39
2024-03-08T19:46:35.843Z,4.33
2024-03-08T19:48:17.271Z,4.32
2024-03-08T19:49:53.099Z,4.31
2024-03-08T19:51:27.673Z,4.24
2024-03-08T19:53:05.436Z,4.22
2024-03-08T19:54:40.545Z,4.11
2024-03-08T19:56:13.732Z,4.15
2024-03-08T19:57:50.814Z,4.11
2024-03-08T19:59:25.671Z,4.08
2024-03-08T20:01:00.127Z,4.07
2024-03-08T20:04:06.339Z,4.04
2024-03-08T20:05:44.056Z,4.01
2024-03-08T20:07:18.268Z,3.99
2024-03-08T20:08:52.660Z,3.97
2024-03-08T20:10:26.293Z,4.01
2024-03-08T20:12:00.413Z,3.97
2024-03-08T20:13:35.762Z,3.92
2024-03-08T20:15:11.965Z,3.96
2024-03-08T20:16:45.857Z,3.86
2024-03-08T20:18:20.678Z,3.82
2024-03-08T20:19:54.119Z,3.77
2024-03-08T20:21:29.425Z,3.62
2024-03-08T20:23:05.362Z,3.88
2024-03-08T20:24:39.599Z,3.83
2024-03-08T20:26:16.384Z,3.82
2024-03-08T20:27:52.630Z,3.72
2024-03-08T20:29:28.422Z,3.74
2024-03-08T20:31:02.157Z,3.64
2024-03-08T20:32:36.197Z,3.56
2024-03-08T20:34:10.919Z,3.62
2024-03-08T20:35:46.585Z,3.67
2024-03-08T20:37:23.008Z,3.65
2024-03-08T20:38:58.743Z,3.68
2024-03-08T20:40:38.184Z,3.67
2024-03-08T20:42:12.755Z,3.64
2024-03-08T20:43:45.936Z,3.61
2024-03-08T20:45:19.822Z,3.59
2024-03-08T20:46:53.107Z,3.54
2024-03-08T20:48:27.652Z,3.64
2024-03-08T20:50:00.962Z,3.60
2024-03-08T20:51:36.386Z,3.74
2024-03-08T20:53:13.342Z,3.70
2024-03-08T20:54:49.116Z,3.64